sensor_id;sensor_type;location;lat;lon;timestamp;P1;durP1;ratioP1;P2;durP2;ratioP2
12194;SDS011;27023;42.680;23.132;2022-12-08T00:00:25;14.37;;;13.80;;
12194;SDS011;27023;42.680;23.132;2022-12-08T00:02:51;16.33;;;15.70;;
12194;SDS011;27023;42.680;23.132;2022-12-08T00:05:20;15.70;;;15.10;;
12194;SDS011;27023;42.680;23.132;2022-12-08T00:08:04;14.40;;;13.90;;
12194;SDS011;27023;42.680;23.132;2022-12-08T00:10:48;15.27;;;14.67;;
12194;SDS011;27023;42.680;23.132;2022-12-08T00:13:15;13.73;;;13.20;;
12194;SDS011;27023;42.680;23.132;2022-12-08T00:15:41;18.53;;;17.73;;
12194;SDS011;27023;42.680;23.132;2022-12-08T00:18:08;16.23;;;15.47;;
12194;SDS011;27023;42.680;23.132;2022-12-08T00:20:36;20.50;;;19.60;;
12194;SDS011;27023;42.680;23.132;2022-12-08T00:23:03;17.43;;;16.63;;
12194;SDS011;27023;42.680;23.132;2022-12-08T00:25:29;21.17;;;20.17;;
12194;SDS011;27023;42.680;23.132;2022-12-08T00:27:56;28.20;;;26.83;;
12194;SDS011;27023;42.680;23.132;2022-12-08T00:30:23;30.03;;;28.60;;
12194;SDS011;27023;42.680;23.132;2022-12-08T00:32:50;29.10;;;27.67;;
12194;SDS011;27023;42.680;23.132;2022-12-08T00:35:16;30.77;;;29.27;;
12194;SDS011;27023;42.680;23.132;2022-12-08T00:37:44;31.60;;;30.03;;
12194;SDS011;27023;42.680;23.132;2022-12-08T00:40:11;23.87;;;22.67;;
12194;SDS011;27023;42.680;23.132;2022-12-08T00:42:38;18.63;;;17.70;;
12194;SDS011;27023;42.680;23.132;2022-12-08T00:45:05;12.37;;;11.90;;
12194;SDS011;27023;42.680;23.132;2022-12-08T00:47:32;16.60;;;15.90;;
12194;SDS011;27023;42.680;23.132;2022-12-08T00:49:59;13.83;;;13.30;;
12194;SDS011;27023;42.680;23.132;2022-12-08T00:52:26;14.47;;;13.87;;
12194;SDS011;27023;42.680;23.132;2022-12-08T00:54:54;18.17;;;17.37;;
12194;SDS011;27023;42.680;23.132;2022-12-08T00:57:24;13.70;;;13.20;;
12194;SDS011;27023;42.680;23.132;2022-12-08T00:59:51;21.70;;;20.73;;
12194;SDS011;27023;42.680;23.132;2022-12-08T01:02:17;17.77;;;17.00;;
12194;SDS011;27023;42.680;23.132;2022-12-08T01:04:44;22.07;;;21.17;;
12194;SDS011;27023;42.680;23.132;2022-12-08T01:07:11;21.63;;;20.63;;
12194;SDS011;27023;42.680;23.132;2022-12-08T01:09:38;19.63;;;18.80;;
12194;SDS011;27023;42.680;23.132;2022-12-08T01:12:07;17.40;;;16.73;;
12194;SDS011;27023;42.680;23.132;2022-12-08T01:14:35;19.17;;;18.27;;
12194;SDS011;27023;42.680;23.132;2022-12-08T01:17:02;18.77;;;17.97;;
12194;SDS011;27023;42.680;23.132;2022-12-08T01:19:28;16.90;;;16.17;;
12194;SDS011;27023;42.680;23.132;2022-12-08T01:21:56;16.43;;;15.73;;
12194;SDS011;27023;42.680;23.132;2022-12-08T01:24:23;23.93;;;22.83;;
12194;SDS011;27023;42.680;23.132;2022-12-08T01:26:50;22.03;;;21.03;;
12194;SDS011;27023;42.680;23.132;2022-12-08T01:29:18;15.27;;;14.67;;
12194;SDS011;27023;42.680;23.132;2022-12-08T01:31:45;14.70;;;14.20;;
12194;SDS011;27023;42.680;23.132;2022-12-08T01:34:11;13.60;;;13.03;;
12194;SDS011;27023;42.680;23.132;2022-12-08T01:36:38;22.50;;;21.47;;
12194;SDS011;27023;42.680;23.132;2022-12-08T01:39:06;24.17;;;23.07;;
12194;SDS011;27023;42.680;23.132;2022-12-08T01:41:36;17.53;;;16.77;;
12194;SDS011;27023;42.680;23.132;2022-12-08T01:44:54;20.17;;;19.27;;
12194;SDS011;27023;42.680;23.132;2022-12-08T01:47:10;12.70;;;12.17;;
12194;SDS011;27023;42.680;23.132;2022-12-08T01:49:37;15.20;;;14.60;;
12194;SDS011;27023;42.680;23.132;2022-12-08T01:52:06;11.60;;;11.10;;
12194;SDS011;27023;42.680;23.132;2022-12-08T01:54:37;16.70;;;16.00;;
12194;SDS011;27023;42.680;23.132;2022-12-08T01:57:09;12.27;;;11.83;;
12194;SDS011;27023;42.680;23.132;2022-12-08T01:59:40;25.17;;;24.00;;
12194;SDS011;27023;42.680;23.132;2022-12-08T02:02:13;19.20;;;18.37;;
12194;SDS011;27023;42.680;23.132;2022-12-08T02:04:40;12.37;;;11.87;;
12194;SDS011;27023;42.680;23.132;2022-12-08T02:07:06;14.13;;;13.50;;
12194;SDS011;27023;42.680;23.132;2022-12-08T02:09:35;17.57;;;16.87;;
12194;SDS011;27023;42.680;23.132;2022-12-08T02:12:03;22.10;;;21.07;;
12194;SDS011;27023;42.680;23.132;2022-12-08T02:14:30;20.57;;;19.67;;
12194;SDS011;27023;42.680;23.132;2022-12-08T02:16:59;13.43;;;12.93;;
12194;SDS011;27023;42.680;23.132;2022-12-08T02:19:51;21.57;;;20.60;;
12194;SDS011;27023;42.680;23.132;2022-12-08T02:22:38;20.33;;;19.47;;
12194;SDS011;27023;42.680;23.132;2022-12-08T02:25:14;15.63;;;14.93;;
12194;SDS011;27023;42.680;23.132;2022-12-08T02:27:45;14.47;;;13.97;;
12194;SDS011;27023;42.680;23.132;2022-12-08T02:30:24;17.37;;;16.67;;
12194;SDS011;27023;42.680;23.132;2022-12-08T02:35:58;15.70;;;15.10;;
12194;SDS011;27023;42.680;23.132;2022-12-08T02:38:39;15.07;;;14.47;;
12194;SDS011;27023;42.680;23.132;2022-12-08T02:41:18;15.70;;;15.03;;
12194;SDS011;27023;42.680;23.132;2022-12-08T02:43:52;11.97;;;11.57;;
12194;SDS011;27023;42.680;23.132;2022-12-08T02:46:25;15.20;;;14.60;;
12194;SDS011;27023;42.680;23.132;2022-12-08T02:48:54;20.17;;;19.37;;
12194;SDS011;27023;42.680;23.132;2022-12-08T02:51:24;15.77;;;15.17;;
12194;SDS011;27023;42.680;23.132;2022-12-08T02:53:51;19.53;;;18.73;;
12194;SDS011;27023;42.680;23.132;2022-12-08T02:56:21;15.53;;;14.93;;
12194;SDS011;27023;42.680;23.132;2022-12-08T02:59:07;14.73;;;14.13;;
12194;SDS011;27023;42.680;23.132;2022-12-08T03:01:45;14.97;;;14.37;;
12194;SDS011;27023;42.680;23.132;2022-12-08T03:04:25;16.47;;;15.87;;
12194;SDS011;27023;42.680;23.132;2022-12-08T03:07:03;17.63;;;16.83;;
12194;SDS011;27023;42.680;23.132;2022-12-08T03:09:33;16.00;;;15.30;;
12194;SDS011;27023;42.680;23.132;2022-12-08T03:12:05;11.53;;;11.13;;
12194;SDS011;27023;42.680;23.132;2022-12-08T03:14:42;14.50;;;13.90;;
12194;SDS011;27023;42.680;23.132;2022-12-08T03:17:12;14.33;;;13.77;;
12194;SDS011;27023;42.680;23.132;2022-12-08T03:19:41;13.97;;;13.47;;
12194;SDS011;27023;42.680;23.132;2022-12-08T03:22:12;17.77;;;16.93;;
12194;SDS011;27023;42.680;23.132;2022-12-08T03:24:42;15.57;;;14.97;;
12194;SDS011;27023;42.680;23.132;2022-12-08T03:27:12;16.13;;;15.50;;
12194;SDS011;27023;42.680;23.132;2022-12-08T03:29:43;14.57;;;14.07;;
12194;SDS011;27023;42.680;23.132;2022-12-08T03:32:13;15.27;;;14.67;;
12194;SDS011;27023;42.680;23.132;2022-12-08T03:34:46;18.27;;;17.50;;
12194;SDS011;27023;42.680;23.132;2022-12-08T03:37:16;19.37;;;18.43;;
12194;SDS011;27023;42.680;23.132;2022-12-08T03:39:43;18.97;;;18.13;;
12194;SDS011;27023;42.680;23.132;2022-12-08T03:42:10;18.10;;;17.30;;
12194;SDS011;27023;42.680;23.132;2022-12-08T03:44:36;18.97;;;18.17;;
12194;SDS011;27023;42.680;23.132;2022-12-08T03:47:03;18.27;;;17.47;;
12194;SDS011;27023;42.680;23.132;2022-12-08T03:49:30;16.47;;;15.77;;
12194;SDS011;27023;42.680;23.132;2022-12-08T03:51:57;12.47;;;11.97;;
12194;SDS011;27023;42.680;23.132;2022-12-08T03:54:25;13.97;;;13.40;;
12194;SDS011;27023;42.680;23.132;2022-12-08T03:56:51;17.37;;;16.63;;
12194;SDS011;27023;42.680;23.132;2022-12-08T03:59:18;17.37;;;16.67;;
12194;SDS011;27023;42.680;23.132;2022-12-08T04:01:45;19.43;;;18.57;;
12194;SDS011;27023;42.680;23.132;2022-12-08T04:04:11;21.33;;;20.33;;
12194;SDS011;27023;42.680;23.132;2022-12-08T04:06:38;21.47;;;20.60;;
12194;SDS011;27023;42.680;23.132;2022-12-08T04:09:05;25.10;;;24.03;;
12194;SDS011;27023;42.680;23.132;2022-12-08T04:11:33;20.73;;;19.83;;
12194;SDS011;27023;42.680;23.132;2022-12-08T04:13:59;21.13;;;20.23;;
12194;SDS011;27023;42.680;23.132;2022-12-08T04:16:26;14.20;;;13.60;;
12194;SDS011;27023;42.680;23.132;2022-12-08T04:18:53;13.50;;;12.97;;
12194;SDS011;27023;42.680;23.132;2022-12-08T04:21:20;15.93;;;15.13;;
12194;SDS011;27023;42.680;23.132;2022-12-08T04:23:47;16.13;;;15.43;;
12194;SDS011;27023;42.680;23.132;2022-12-08T04:26:14;17.63;;;16.73;;
12194;SDS011;27023;42.680;23.132;2022-12-08T04:28:43;16.93;;;16.23;;
12194;SDS011;27023;42.680;23.132;2022-12-08T04:31:10;17.37;;;16.43;;
12194;SDS011;27023;42.680;23.132;2022-12-08T04:33:36;18.33;;;17.47;;
12194;SDS011;27023;42.680;23.132;2022-12-08T04:36:04;14.77;;;14.07;;
12194;SDS011;27023;42.680;23.132;2022-12-08T04:38:31;20.27;;;19.40;;
12194;SDS011;27023;42.680;23.132;2022-12-08T04:40:58;21.00;;;20.03;;
12194;SDS011;27023;42.680;23.132;2022-12-08T04:43:25;24.67;;;23.50;;
12194;SDS011;27023;42.680;23.132;2022-12-08T04:45:53;20.20;;;19.30;;
12194;SDS011;27023;42.680;23.132;2022-12-08T04:48:20;20.53;;;19.60;;
12194;SDS011;27023;42.680;23.132;2022-12-08T04:50:49;19.80;;;18.90;;
12194;SDS011;27023;42.680;23.132;2022-12-08T04:53:15;19.30;;;18.33;;
12194;SDS011;27023;42.680;23.132;2022-12-08T04:55:43;20.13;;;19.30;;
12194;SDS011;27023;42.680;23.132;2022-12-08T05:01:35;28.37;;;27.07;;
12194;SDS011;27023;42.680;23.132;2022-12-08T05:04:02;32.33;;;30.73;;
12194;SDS011;27023;42.680;23.132;2022-12-08T05:06:29;31.43;;;29.97;;
12194;SDS011;27023;42.680;23.132;2022-12-08T05:08:55;31.37;;;29.93;;
12194;SDS011;27023;42.680;23.132;2022-12-08T05:11:22;27.13;;;25.93;;
12194;SDS011;27023;42.680;23.132;2022-12-08T05:13:48;26.23;;;25.07;;
12194;SDS011;27023;42.680;23.132;2022-12-08T05:16:15;28.07;;;26.83;;
12194;SDS011;27023;42.680;23.132;2022-12-08T05:18:43;24.53;;;23.50;;
12194;SDS011;27023;42.680;23.132;2022-12-08T05:21:10;23.00;;;22.07;;
12194;SDS011;27023;42.680;23.132;2022-12-08T05:23:37;25.77;;;24.63;;
12194;SDS011;27023;42.680;23.132;2022-12-08T05:26:04;23.70;;;22.63;;
12194;SDS011;27023;42.680;23.132;2022-12-08T05:28:31;25.03;;;23.97;;
12194;SDS011;27023;42.680;23.132;2022-12-08T05:30:57;27.70;;;26.40;;
12194;SDS011;27023;42.680;23.132;2022-12-08T05:33:24;24.83;;;23.77;;
12194;SDS011;27023;42.680;23.132;2022-12-08T05:35:52;25.90;;;24.73;;
12194;SDS011;27023;42.680;23.132;2022-12-08T05:38:22;24.77;;;23.63;;
12194;SDS011;27023;42.680;23.132;2022-12-08T05:40:48;22.80;;;21.83;;
12194;SDS011;27023;42.680;23.132;2022-12-08T05:43:15;23.63;;;22.60;;
12194;SDS011;27023;42.680;23.132;2022-12-08T05:45:42;22.10;;;21.13;;
12194;SDS011;27023;42.680;23.132;2022-12-08T05:48:09;19.67;;;18.80;;
12194;SDS011;27023;42.680;23.132;2022-12-08T05:50:35;21.70;;;20.80;;
12194;SDS011;27023;42.680;23.132;2022-12-08T05:53:04;26.07;;;24.90;;
12194;SDS011;27023;42.680;23.132;2022-12-08T05:55:30;23.23;;;22.20;;
12194;SDS011;27023;42.680;23.132;2022-12-08T05:57:57;19.77;;;18.97;;
12194;SDS011;27023;42.680;23.132;2022-12-08T06:00:24;23.83;;;22.80;;
12194;SDS011;27023;42.680;23.132;2022-12-08T06:02:50;16.23;;;15.63;;
12194;SDS011;27023;42.680;23.132;2022-12-08T06:05:17;20.83;;;19.93;;
12194;SDS011;27023;42.680;23.132;2022-12-08T06:07:44;36.37;;;34.63;;
12194;SDS011;27023;42.680;23.132;2022-12-08T06:10:12;21.00;;;20.10;;
12194;SDS011;27023;42.680;23.132;2022-12-08T06:12:39;19.80;;;18.93;;
12194;SDS011;27023;42.680;23.132;2022-12-08T06:15:06;17.93;;;17.13;;
12194;SDS011;27023;42.680;23.132;2022-12-08T06:17:33;17.33;;;16.63;;
12194;SDS011;27023;42.680;23.132;2022-12-08T06:20:00;18.07;;;17.33;;
12194;SDS011;27023;42.680;23.132;2022-12-08T06:22:27;20.33;;;19.43;;
12194;SDS011;27023;42.680;23.132;2022-12-08T06:24:54;23.63;;;22.53;;
12194;SDS011;27023;42.680;23.132;2022-12-08T06:27:22;18.50;;;17.80;;
12194;SDS011;27023;42.680;23.132;2022-12-08T06:29:48;18.93;;;18.13;;
12194;SDS011;27023;42.680;23.132;2022-12-08T06:32:15;19.47;;;18.63;;
12194;SDS011;27023;42.680;23.132;2022-12-08T06:34:42;18.80;;;18.03;;
12194;SDS011;27023;42.680;23.132;2022-12-08T06:37:09;24.90;;;23.73;;
12194;SDS011;27023;42.680;23.132;2022-12-08T06:39:35;20.53;;;19.73;;
12194;SDS011;27023;42.680;23.132;2022-12-08T06:42:02;21.83;;;20.93;;
12194;SDS011;27023;42.680;23.132;2022-12-08T06:44:48;21.57;;;20.60;;
12194;SDS011;27023;42.680;23.132;2022-12-08T06:47:15;22.80;;;21.77;;
12194;SDS011;27023;42.680;23.132;2022-12-08T06:49:43;15.60;;;15.00;;
12194;SDS011;27023;42.680;23.132;2022-12-08T06:52:10;19.67;;;18.83;;
12194;SDS011;27023;42.680;23.132;2022-12-08T06:54:37;31.17;;;29.67;;
12194;SDS011;27023;42.680;23.132;2022-12-08T06:57:03;35.67;;;33.93;;
12194;SDS011;27023;42.680;23.132;2022-12-08T06:59:30;31.60;;;30.13;;
12194;SDS011;27023;42.680;23.132;2022-12-08T07:01:58;26.70;;;25.50;;
12194;SDS011;27023;42.680;23.132;2022-12-08T07:04:25;23.60;;;22.57;;
12194;SDS011;27023;42.680;23.132;2022-12-08T07:06:52;22.43;;;21.47;;
12194;SDS011;27023;42.680;23.132;2022-12-08T07:09:18;19.20;;;18.40;;
12194;SDS011;27023;42.680;23.132;2022-12-08T07:11:45;13.47;;;12.97;;
12194;SDS011;27023;42.680;23.132;2022-12-08T07:14:12;11.43;;;11.03;;
12194;SDS011;27023;42.680;23.132;2022-12-08T07:16:39;12.27;;;11.80;;
12194;SDS011;27023;42.680;23.132;2022-12-08T07:19:07;11.40;;;11.00;;
12194;SDS011;27023;42.680;23.132;2022-12-08T07:21:36;12.00;;;11.60;;
12194;SDS011;27023;42.680;23.132;2022-12-08T07:24:04;14.23;;;13.73;;
12194;SDS011;27023;42.680;23.132;2022-12-08T07:26:31;14.53;;;14.00;;
12194;SDS011;27023;42.680;23.132;2022-12-08T07:28:58;15.80;;;15.20;;
12194;SDS011;27023;42.680;23.132;2022-12-08T07:31:25;11.77;;;11.37;;
12194;SDS011;27023;42.680;23.132;2022-12-08T07:33:53;9.37;;;9.17;;
12194;SDS011;27023;42.680;23.132;2022-12-08T07:36:22;9.30;;;9.00;;
12194;SDS011;27023;42.680;23.132;2022-12-08T07:38:50;12.57;;;12.13;;
12194;SDS011;27023;42.680;23.132;2022-12-08T07:41:19;12.43;;;12.03;;
12194;SDS011;27023;42.680;23.132;2022-12-08T07:43:48;9.47;;;9.23;;
12194;SDS011;27023;42.680;23.132;2022-12-08T07:46:15;9.03;;;8.80;;
12194;SDS011;27023;42.680;23.132;2022-12-08T07:48:44;8.57;;;8.37;;
12194;SDS011;27023;42.680;23.132;2022-12-08T07:51:11;8.20;;;8.00;;
12194;SDS011;27023;42.680;23.132;2022-12-08T07:53:41;9.37;;;9.10;;
12194;SDS011;27023;42.680;23.132;2022-12-08T07:56:09;10.20;;;9.90;;
12194;SDS011;27023;42.680;23.132;2022-12-08T07:58:37;10.23;;;9.93;;
12194;SDS011;27023;42.680;23.132;2022-12-08T08:01:04;8.20;;;8.00;;
12194;SDS011;27023;42.680;23.132;2022-12-08T08:03:31;8.00;;;7.83;;
12194;SDS011;27023;42.680;23.132;2022-12-08T08:06:01;6.93;;;6.83;;
12194;SDS011;27023;42.680;23.132;2022-12-08T08:08:28;8.17;;;7.97;;
12194;SDS011;27023;42.680;23.132;2022-12-08T08:10:56;8.10;;;7.90;;
12194;SDS011;27023;42.680;23.132;2022-12-08T08:13:23;7.80;;;7.63;;
12194;SDS011;27023;42.680;23.132;2022-12-08T08:15:49;7.10;;;6.90;;
12194;SDS011;27023;42.680;23.132;2022-12-08T08:18:18;9.10;;;8.87;;
12194;SDS011;27023;42.680;23.132;2022-12-08T08:20:47;7.80;;;7.63;;
12194;SDS011;27023;42.680;23.132;2022-12-08T08:23:14;7.30;;;7.17;;
12194;SDS011;27023;42.680;23.132;2022-12-08T08:25:41;8.73;;;8.53;;
12194;SDS011;27023;42.680;23.132;2022-12-08T08:28:10;7.53;;;7.43;;
12194;SDS011;27023;42.680;23.132;2022-12-08T08:30:37;6.67;;;6.57;;
12194;SDS011;27023;42.680;23.132;2022-12-08T08:33:04;7.27;;;7.17;;
12194;SDS011;27023;42.680;23.132;2022-12-08T08:35:31;8.10;;;7.90;;
12194;SDS011;27023;42.680;23.132;2022-12-08T08:37:58;6.93;;;6.83;;
12194;SDS011;27023;42.680;23.132;2022-12-08T08:40:25;7.37;;;7.17;;
12194;SDS011;27023;42.680;23.132;2022-12-08T08:42:52;7.20;;;6.60;;
12194;SDS011;27023;42.680;23.132;2022-12-08T08:45:20;7.67;;;7.50;;
12194;SDS011;27023;42.680;23.132;2022-12-08T08:47:47;5.43;;;5.33;;
12194;SDS011;27023;42.680;23.132;2022-12-08T08:50:14;8.13;;;7.93;;
12194;SDS011;27023;42.680;23.132;2022-12-08T08:52:40;8.20;;;8.00;;
12194;SDS011;27023;42.680;23.132;2022-12-08T08:55:07;8.87;;;8.60;;
12194;SDS011;27023;42.680;23.132;2022-12-08T08:57:34;9.10;;;8.80;;
12194;SDS011;27023;42.680;23.132;2022-12-08T09:00:01;7.90;;;7.70;;
12194;SDS011;27023;42.680;23.132;2022-12-08T09:02:30;8.40;;;8.20;;
12194;SDS011;27023;42.680;23.132;2022-12-08T09:04:57;6.63;;;6.43;;
12194;SDS011;27023;42.680;23.132;2022-12-08T09:07:24;9.80;;;9.50;;
12194;SDS011;27023;42.680;23.132;2022-12-08T09:09:50;7.10;;;6.90;;
12194;SDS011;27023;42.680;23.132;2022-12-08T09:12:17;7.63;;;7.43;;
12194;SDS011;27023;42.680;23.132;2022-12-08T09:14:44;9.30;;;9.03;;
12194;SDS011;27023;42.680;23.132;2022-12-08T09:17:11;9.20;;;8.93;;
12194;SDS011;27023;42.680;23.132;2022-12-08T09:19:39;10.80;;;10.47;;
12194;SDS011;27023;42.680;23.132;2022-12-08T09:22:06;9.57;;;9.27;;
12194;SDS011;27023;42.680;23.132;2022-12-08T09:24:32;8.43;;;8.23;;
12194;SDS011;27023;42.680;23.132;2022-12-08T09:26:59;3.77;;;3.70;;
12194;SDS011;27023;42.680;23.132;2022-12-08T09:29:26;6.23;;;6.13;;
12194;SDS011;27023;42.680;23.132;2022-12-08T09:31:52;2.83;;;2.73;;
12194;SDS011;27023;42.680;23.132;2022-12-08T09:34:20;4.07;;;3.97;;
12194;SDS011;27023;42.680;23.132;2022-12-08T09:36:48;8.17;;;7.97;;
12194;SDS011;27023;42.680;23.132;2022-12-08T09:39:15;9.50;;;9.27;;
12194;SDS011;27023;42.680;23.132;2022-12-08T09:41:42;8.47;;;8.27;;
12194;SDS011;27023;42.680;23.132;2022-12-08T09:44:20;12.13;;;11.73;;
12194;SDS011;27023;42.680;23.132;2022-12-08T09:47:04;12.23;;;11.83;;
12194;SDS011;27023;42.680;23.132;2022-12-08T09:49:38;9.73;;;9.43;;
12194;SDS011;27023;42.680;23.132;2022-12-08T09:52:11;11.13;;;10.73;;
12194;SDS011;27023;42.680;23.132;2022-12-08T09:54:46;13.07;;;12.67;;
12194;SDS011;27023;42.680;23.132;2022-12-08T09:57:14;10.67;;;10.27;;
12194;SDS011;27023;42.680;23.132;2022-12-08T09:59:46;9.70;;;9.40;;
12194;SDS011;27023;42.680;23.132;2022-12-08T10:02:18;14.43;;;13.07;;
12194;SDS011;27023;42.680;23.132;2022-12-08T10:04:48;10.10;;;9.70;;
12194;SDS011;27023;42.680;23.132;2022-12-08T10:07:17;13.47;;;12.97;;
12194;SDS011;27023;42.680;23.132;2022-12-08T10:09:51;16.07;;;15.47;;
12194;SDS011;27023;42.680;23.132;2022-12-08T10:12:25;15.17;;;14.60;;
12194;SDS011;27023;42.680;23.132;2022-12-08T10:14:56;11.10;;;10.80;;
12194;SDS011;27023;42.680;23.132;2022-12-08T10:17:36;10.80;;;10.50;;
12194;SDS011;27023;42.680;23.132;2022-12-08T10:20:09;9.87;;;9.57;;
12194;SDS011;27023;42.680;23.132;2022-12-08T10:22:39;12.07;;;11.57;;
12194;SDS011;27023;42.680;23.132;2022-12-08T10:25:09;13.07;;;12.53;;
12194;SDS011;27023;42.680;23.132;2022-12-08T10:27:40;12.87;;;12.47;;
12194;SDS011;27023;42.680;23.132;2022-12-08T10:30:09;12.73;;;12.33;;
12194;SDS011;27023;42.680;23.132;2022-12-08T10:32:37;13.57;;;12.97;;
12194;SDS011;27023;42.680;23.132;2022-12-08T10:35:05;12.10;;;11.70;;
12194;SDS011;27023;42.680;23.132;2022-12-08T10:37:33;14.53;;;13.97;;
12194;SDS011;27023;42.680;23.132;2022-12-08T10:40:05;11.03;;;10.70;;
12194;SDS011;27023;42.680;23.132;2022-12-08T10:42:36;18.53;;;17.33;;
12194;SDS011;27023;42.680;23.132;2022-12-08T10:45:18;14.40;;;13.90;;
12194;SDS011;27023;42.680;23.132;2022-12-08T10:47:56;13.00;;;12.60;;
12194;SDS011;27023;42.680;23.132;2022-12-08T10:50:27;16.60;;;15.93;;
12194;SDS011;27023;42.680;23.132;2022-12-08T10:52:58;13.67;;;13.17;;
12194;SDS011;27023;42.680;23.132;2022-12-08T10:55:28;12.33;;;11.93;;
12194;SDS011;27023;42.680;23.132;2022-12-08T10:58:04;13.13;;;12.73;;
12194;SDS011;27023;42.680;23.132;2022-12-08T11:00:30;13.37;;;12.97;;
12194;SDS011;27023;42.680;23.132;2022-12-08T11:02:58;16.03;;;15.37;;
12194;SDS011;27023;42.680;23.132;2022-12-08T11:05:27;11.37;;;11.03;;
12194;SDS011;27023;42.680;23.132;2022-12-08T11:07:56;12.57;;;12.13;;
12194;SDS011;27023;42.680;23.132;2022-12-08T11:10:29;10.10;;;9.80;;
12194;SDS011;27023;42.680;23.132;2022-12-08T11:13:00;10.03;;;9.73;;
12194;SDS011;27023;42.680;23.132;2022-12-08T11:15:31;10.87;;;10.57;;
12194;SDS011;27023;42.680;23.132;2022-12-08T11:18:05;10.70;;;10.40;;
12194;SDS011;27023;42.680;23.132;2022-12-08T11:20:37;8.10;;;7.93;;
12194;SDS011;27023;42.680;23.132;2022-12-08T11:23:16;10.73;;;10.43;;
12194;SDS011;27023;42.680;23.132;2022-12-08T11:25:47;14.20;;;13.67;;
12194;SDS011;27023;42.680;23.132;2022-12-08T11:28:17;14.67;;;14.00;;
12194;SDS011;27023;42.680;23.132;2022-12-08T11:30:49;15.97;;;15.07;;
12194;SDS011;27023;42.680;23.132;2022-12-08T11:33:22;10.37;;;10.07;;
12194;SDS011;27023;42.680;23.132;2022-12-08T11:35:51;10.60;;;10.30;;
12194;SDS011;27023;42.680;23.132;2022-12-08T11:38:23;13.17;;;12.67;;
12194;SDS011;27023;42.680;23.132;2022-12-08T11:40:53;19.90;;;17.97;;
12194;SDS011;27023;42.680;23.132;2022-12-08T11:43:25;13.10;;;12.63;;
12194;SDS011;27023;42.680;23.132;2022-12-08T11:45:56;12.43;;;11.63;;
12194;SDS011;27023;42.680;23.132;2022-12-08T11:48:25;10.07;;;9.77;;
12194;SDS011;27023;42.680;23.132;2022-12-08T11:50:59;14.43;;;13.93;;
12194;SDS011;27023;42.680;23.132;2022-12-08T11:53:32;14.03;;;13.47;;
12194;SDS011;27023;42.680;23.132;2022-12-08T11:56:12;7.93;;;7.73;;
12194;SDS011;27023;42.680;23.132;2022-12-08T11:58:45;2.93;;;2.90;;
12194;SDS011;27023;42.680;23.132;2022-12-08T12:01:17;6.03;;;5.57;;
12194;SDS011;27023;42.680;23.132;2022-12-08T12:03:47;9.97;;;9.57;;
12194;SDS011;27023;42.680;23.132;2022-12-08T12:09:26;10.70;;;10.23;;
12194;SDS011;27023;42.680;23.132;2022-12-08T12:12:04;3.90;;;3.80;;
12194;SDS011;27023;42.680;23.132;2022-12-08T12:14:44;6.20;;;5.77;;
12194;SDS011;27023;42.680;23.132;2022-12-08T12:17:23;8.40;;;5.87;;
12194;SDS011;27023;42.680;23.132;2022-12-08T12:20:01;4.00;;;4.00;;
12194;SDS011;27023;42.680;23.132;2022-12-08T12:22:31;5.13;;;4.83;;
12194;SDS011;27023;42.680;23.132;2022-12-08T12:25:00;6.07;;;5.47;;
12194;SDS011;27023;42.680;23.132;2022-12-08T12:27:30;10.83;;;10.33;;
12194;SDS011;27023;42.680;23.132;2022-12-08T12:30:05;10.23;;;9.93;;
12194;SDS011;27023;42.680;23.132;2022-12-08T12:32:40;10.13;;;9.53;;
12194;SDS011;27023;42.680;23.132;2022-12-08T12:35:13;11.43;;;10.67;;
12194;SDS011;27023;42.680;23.132;2022-12-08T12:37:41;5.30;;;4.13;;
12194;SDS011;27023;42.680;23.132;2022-12-08T12:40:14;3.20;;;3.10;;
12194;SDS011;27023;42.680;23.132;2022-12-08T12:42:46;6.20;;;3.80;;
12194;SDS011;27023;42.680;23.132;2022-12-08T12:45:34;5.53;;;5.33;;
12194;SDS011;27023;42.680;23.132;2022-12-08T12:48:20;10.80;;;10.40;;
12194;SDS011;27023;42.680;23.132;2022-12-08T12:50:49;8.10;;;7.90;;
12194;SDS011;27023;42.680;23.132;2022-12-08T13:02:16;10.60;;;10.30;;
12194;SDS011;27023;42.680;23.132;2022-12-08T13:04:51;12.93;;;12.33;;
12194;SDS011;27023;42.680;23.132;2022-12-08T13:07:21;14.63;;;13.93;;
12194;SDS011;27023;42.680;23.132;2022-12-08T13:09:53;9.73;;;9.40;;
12194;SDS011;27023;42.680;23.132;2022-12-08T13:12:23;10.23;;;9.93;;
12194;SDS011;27023;42.680;23.132;2022-12-08T13:14:52;17.97;;;17.10;;
12194;SDS011;27023;42.680;23.132;2022-12-08T13:17:27;9.27;;;9.07;;
12194;SDS011;27023;42.680;23.132;2022-12-08T13:19:57;11.77;;;11.07;;
12194;SDS011;27023;42.680;23.132;2022-12-08T13:28:24;8.87;;;8.63;;
12194;SDS011;27023;42.680;23.132;2022-12-08T13:30:53;7.53;;;7.33;;
12194;SDS011;27023;42.680;23.132;2022-12-08T13:33:23;8.00;;;7.80;;
12194;SDS011;27023;42.680;23.132;2022-12-08T13:36:00;8.13;;;7.93;;
12194;SDS011;27023;42.680;23.132;2022-12-08T13:38:35;16.30;;;15.70;;
12194;SDS011;27023;42.680;23.132;2022-12-08T13:41:06;12.17;;;11.77;;
12194;SDS011;27023;42.680;23.132;2022-12-08T13:43:39;9.53;;;9.33;;
12194;SDS011;27023;42.680;23.132;2022-12-08T13:46:12;9.90;;;9.60;;
12194;SDS011;27023;42.680;23.132;2022-12-08T13:48:44;15.67;;;14.97;;
12194;SDS011;27023;42.680;23.132;2022-12-08T13:51:15;9.50;;;9.30;;
12194;SDS011;27023;42.680;23.132;2022-12-08T13:53:48;8.80;;;8.60;;
12194;SDS011;27023;42.680;23.132;2022-12-08T13:56:23;12.20;;;11.77;;
12194;SDS011;27023;42.680;23.132;2022-12-08T13:59:00;11.53;;;11.03;;
12194;SDS011;27023;42.680;23.132;2022-12-08T14:01:32;11.80;;;9.83;;
12194;SDS011;27023;42.680;23.132;2022-12-08T14:04:11;8.50;;;8.30;;
12194;SDS011;27023;42.680;23.132;2022-12-08T14:06:41;6.87;;;6.50;;
12194;SDS011;27023;42.680;23.132;2022-12-08T14:09:10;8.27;;;7.73;;
12194;SDS011;27023;42.680;23.132;2022-12-08T14:11:40;2.27;;;2.17;;
12194;SDS011;27023;42.680;23.132;2022-12-08T14:14:13;2.33;;;2.33;;
12194;SDS011;27023;42.680;23.132;2022-12-08T14:16:47;4.37;;;4.17;;
12194;SDS011;27023;42.680;23.132;2022-12-08T14:19:17;6.93;;;6.73;;
12194;SDS011;27023;42.680;23.132;2022-12-08T14:21:46;5.00;;;4.90;;
12194;SDS011;27023;42.680;23.132;2022-12-08T14:24:16;3.20;;;3.20;;
12194;SDS011;27023;42.680;23.132;2022-12-08T14:26:46;6.67;;;6.47;;
12194;SDS011;27023;42.680;23.132;2022-12-08T14:29:32;8.13;;;7.93;;
12194;SDS011;27023;42.680;23.132;2022-12-08T14:32:03;6.80;;;2.67;;
12194;SDS011;27023;42.680;23.132;2022-12-08T14:34:35;4.17;;;4.07;;
12194;SDS011;27023;42.680;23.132;2022-12-08T14:37:05;3.40;;;3.30;;
12194;SDS011;27023;42.680;23.132;2022-12-08T14:39:36;5.10;;;5.00;;
12194;SDS011;27023;42.680;23.132;2022-12-08T14:42:04;5.70;;;5.60;;
12194;SDS011;27023;42.680;23.132;2022-12-08T14:44:32;6.03;;;5.93;;
12194;SDS011;27023;42.680;23.132;2022-12-08T14:47:04;6.80;;;6.70;;
12194;SDS011;27023;42.680;23.132;2022-12-08T14:49:32;4.73;;;4.67;;
12194;SDS011;27023;42.680;23.132;2022-12-08T14:52:01;5.67;;;5.57;;
12194;SDS011;27023;42.680;23.132;2022-12-08T14:54:33;5.37;;;5.27;;